Nantucket, MA

5:44 PM EST on December 06, 2016 (GMT -0500)
Wauwinet | | Change Station

Elev 20 ft 41.33 °N, 69.99 °W | Updated 3 seconds ago

Partly Cloudy
Partly Cloudy
43.3 °F
Feels Like 37 °F
N
11.0
Wind Variable Wind from ESE
Gusts 17.0 mph

Today
High -- | Low -- °F
--% Chance of Precip.
Yesterday
High -- | Low -- °F
Precip. -- in
Pressure 30.01 in
Visibility 10.0 miles
Clouds Few 3000 ft
Windchill 37 °F
Dew Point 35 °F
Humidity 73%
Rainfall in
Snow Depth Not available.
6:51 AM 4:10 PM
Waxing Crescent, 46% visible
METAR KACK 062153Z 06005KT 10SM FEW030 04/M01 A3001 RMK AO2 SLP162 T00391006
Pressure 30.01 in
Visibility 10.0 miles
Clouds Few 3000 ft
Windchill 37 °F
Dew Point 35 °F
Humidity 73%
Rainfall in
Snow Depth Not available.
6:51 AM 4:10 PM
Waxing Crescent, 46% visible
METAR KACK 062153Z 06005KT 10SM FEW030 04/M01 A3001 RMK AO2 SLP162 T00391006

10-Day Weather Forecast

Almanac

Astronomy

Dec. 06, 2016 Rise Set
Actual Time
Civil Twilight
Nautical Twilight
Astronomical Twilight
Moon
Length of Visible Light
Length of Day
Tomorrow will be .
, % of the Moon is Illuminated

Today's Extremes

State Highs State Lows

Community

WunderPhotos

Upload Photos

1,956,042 photos uploaded!

WunderBlog® & News

Nearby

Air Quality

  Air Quality AQ Index Pollutant
Not available.

Snow Depth

Station Depth Elevation

Earthquake Activity

City Distance Mag. Time & Date
Minimum magnitude displayed is 2.5.

Coastal Water Temperatures

Place Temperature

Stations

Nearby Weather Stations

Station Location Temp. Windchill Dew Point Humidity Wind Precip. Elev Updated Type
                   

Watches & Warnings

There are currently no watches in effect.